Time;durP1;ratioP1;P1;durP2;ratioP2;P2;SDS_P1;SDS_P2;PMS_P1;PMS_P2;Temp;Humidity;BMP_temperature;BMP_pressure;BME280_temperature;BME280_humidity;BME280_pressure;Samples;Min_cycle;Max_cycle;Signal;HPM_P1;HPM_P2
2021/03/06 00:02:11;;;;;;;4.28;2.45;;;;;;;6.80;48.53;93531.81;5090318;28;20024;-57
2021/03/06 00:04:36;;;;;;;4.18;2.10;;;;;;;6.88;48.89;93527.22;5090595;28;20032;-51
2021/03/06 00:07:02;;;;;;;6.18;3.65;;;;;;;6.87;47.85;93517.50;5090126;28;20519;-55
2021/03/06 00:09:28;;;;;;;6.05;3.50;;;;;;;6.83;48.39;93512.31;5090399;28;20397;-54
2021/03/06 00:11:53;;;;;;;4.35;2.22;;;;;;;6.98;48.16;93544.03;5090118;28;20059;-51
2021/03/06 00:14:19;;;;;;;2.63;2.42;;;;;;;6.97;48.56;93543.31;5090187;28;20397;-53
2021/03/06 00:16:45;;;;;;;6.15;2.40;;;;;;;6.99;48.97;93540.03;5090355;28;20032;-51
2021/03/06 00:19:10;;;;;;;4.28;2.33;;;;;;;6.87;48.80;93529.22;5090290;28;20084;-52
2021/03/06 00:21:36;;;;;;;3.92;2.33;;;;;;;6.89;47.77;93529.44;5074656;28;20081;-53
2021/03/06 00:24:01;;;;;;;2.40;2.20;;;;;;;7.10;47.06;93543.34;5070117;28;20127;-54
2021/03/06 00:26:26;;;;;;;4.00;1.92;;;;;;;7.07;47.96;93544.38;5070111;28;20111;-53
2021/03/06 00:28:52;;;;;;;3.53;2.90;;;;;;;7.22;46.92;93552.13;5069962;28;20028;-53
2021/03/06 00:31:17;;;;;;;6.07;3.30;;;;;;;7.20;47.75;93555.41;5070107;28;20493;-51
2021/03/06 00:33:43;;;;;;;3.53;2.80;;;;;;;7.24;47.82;93552.34;5069985;28;20040;-51
2021/03/06 00:36:08;;;;;;;3.28;2.63;;;;;;;7.07;48.16;93538.88;5072517;28;20035;-52
2021/03/06 00:38:34;;;;;;;4.68;3.30;;;;;;;7.22;47.73;93535.66;5073612;28;20074;-50
2021/03/06 00:40:59;;;;;;;2.60;2.17;;;;;;;7.27;49.07;93549.31;5073759;28;20032;-51
2021/03/06 00:43:25;;;;;;;3.05;2.45;;;;;;;7.25;48.91;93551.09;5073843;28;20032;-51
2021/03/06 00:45:50;;;;;;;1.98;1.55;;;;;;;7.21;48.57;93548.63;5073547;28;20036;-48
2021/03/06 00:48:15;;;;;;;5.80;2.88;;;;;;;7.14;48.72;93549.28;5073602;28;20032;-49
2021/03/06 00:50:41;;;;;;;4.65;3.83;;;;;;;7.04;48.96;93552.94;5073526;28;20093;-49
2021/03/06 00:53:06;;;;;;;2.85;2.55;;;;;;;7.07;49.67;93551.88;5073521;28;20093;-50
2021/03/06 00:55:32;;;;;;;1.92;1.63;;;;;;;7.14;48.82;93551.25;5073410;28;20032;-51
2021/03/06 00:57:57;;;;;;;2.75;2.55;;;;;;;7.17;49.25;93542.00;5073733;28;20103;-50
2021/03/06 01:00:23;;;;;;;3.28;2.03;;;;;;;7.14;49.27;93543.78;5073416;28;20071;-52
2021/03/06 01:02:48;;;;;;;1.73;1.63;;;;;;;7.18;49.37;93535.97;5082226;28;20415;-53
2021/03/06 01:05:14;;;;;;;1.73;1.63;;;;;;;7.17;49.47;93534.47;5093554;28;20028;-50
2021/03/06 01:07:40;;;;;;;6.63;1.77;;;;;;;7.21;49.17;93534.91;5093293;28;20020;-52
2021/03/06 01:10:18;;;;;;;3.70;1.83;;;;;;;7.30;48.66;93537.25;5093590;28;20150;-54
2021/03/06 01:12:43;;;;;;;3.35;2.22;;;;;;;7.21;48.84;93539.66;5093459;28;20092;-52
2021/03/06 01:15:09;;;;;;;2.80;2.58;;;;;;;7.11;50.38;93533.84;5093648;28;20107;-50
2021/03/06 01:17:35;;;;;;;1.88;1.73;;;;;;;7.16;50.20;93538.50;5093292;28;20073;-52
2021/03/06 01:20:00;;;;;;;5.85;1.75;;;;;;;7.13;49.63;93520.31;5093274;28;20525;-51
2021/03/06 01:22:26;;;;;;;2.45;2.15;;;;;;;7.19;49.29;93536.72;5093371;28;20058;-49
2021/03/06 01:24:51;;;;;;;7.07;2.70;;;;;;;7.18;49.11;93537.97;5093027;28;20027;-48
2021/03/06 01:27:17;;;;;;;4.10;3.08;;;;;;;7.24;49.30;93541.34;5093125;28;20519;-55
2021/03/06 01:29:42;;;;;;;2.35;1.25;;;;;;;7.27;48.64;93532.81;5093143;28;20028;-48
2021/03/06 01:32:07;;;;;;;3.00;1.35;;;;;;;7.14;48.62;93537.53;5093048;28;20447;-52
2021/03/06 01:34:33;;;;;;;4.85;3.30;;;;;;;6.96;49.76;93536.31;5092980;28;20030;-52
2021/03/06 01:36:58;;;;;;;2.63;2.17;;;;;;;6.95;49.77;93528.63;5092996;28;20036;-48
2021/03/06 01:39:24;;;;;;;1.25;1.15;;;;;;;6.76;51.54;93534.88;5092892;28;20144;-49
2021/03/06 01:41:50;;;;;;;2.35;1.90;;;;;;;6.70;50.53;93536.22;5092929;28;20107;-48
2021/03/06 01:44:16;;;;;;;2.72;1.83;;;;;;;6.77;50.43;93530.13;5092827;28;20031;-52
2021/03/06 01:46:42;;;;;;;3.70;2.72;;;;;;;6.57;51.03;93547.13;5091668;28;20028;-48
2021/03/06 01:49:07;;;;;;;3.58;2.33;;;;;;;6.76;50.63;93536.88;5092757;28;20020;-47
2021/03/06 01:51:33;;;;;;;0.90;0.88;;;;;;;6.50;51.80;93543.00;5092613;28;20118;-48
2021/03/06 01:54:00;;;;;;;3.47;1.77;;;;;;;6.53;51.38;93530.25;5091425;28;20111;-49
2021/03/06 01:56:26;;;;;;;3.00;2.65;;;;;;;6.48;51.28;93536.53;5091196;28;20054;-48
2021/03/06 01:58:52;;;;;;;2.80;1.90;;;;;;;6.21;52.11;93530.19;5091309;28;20145;-46
2021/03/06 02:01:17;;;;;;;3.67;2.63;;;;;;;6.18;52.66;93531.22;5092515;28;20103;-48
2021/03/06 02:03:43;;;;;;;3.03;2.40;;;;;;;6.03;52.56;93531.66;5091201;28;20058;-47
2021/03/06 02:06:08;;;;;;;5.13;3.85;;;;;;;5.67;53.65;93532.31;5092317;28;20045;-46
2021/03/06 02:08:34;;;;;;;8.05;4.05;;;;;;;5.81;53.16;93526.41;5092316;28;20523;-49
2021/03/06 02:10:59;;;;;;;3.40;2.63;;;;;;;6.03;52.78;93536.38;5092177;28;20407;-52
2021/03/06 02:13:54;;;;;;;5.65;3.95;;;;;;;5.75;54.35;93536.69;5092217;28;20536;-46
2021/03/06 02:16:53;;;;;;;4.30;2.22;;;;;;;5.71;54.05;93535.50;5090924;28;20046;-50
2021/03/06 02:19:45;;;;;;;3.40;2.50;;;;;;;5.53;54.93;93539.66;5037004;28;20071;-50
2021/03/06 02:22:27;;;;;;;3.30;1.90;;;;;;;5.67;55.03;93546.00;5055557;28;20036;-51
2021/03/06 02:25:04;;;;;;;2.58;1.70;;;;;;;5.51;55.29;93539.44;5092077;28;20512;-49
2021/03/06 02:27:45;;;;;;;2.97;2.60;;;;;;;5.68;55.69;93547.47;5092060;28;20111;-51
2021/03/06 02:30:11;;;;;;;4.57;3.55;;;;;;;5.56;56.92;93541.38;5090627;28;20565;-51
2021/03/06 02:32:42;;;;;;;3.63;2.08;;;;;;;5.31;55.77;93539.88;5091776;28;20424;-50
2021/03/06 02:35:11;;;;;;;1.55;1.40;;;;;;;5.39;55.13;93532.59;5090584;28;20451;-51
2021/03/06 02:37:46;;;;;;;2.20;2.03;;;;;;;5.45;54.52;93543.50;5091641;28;20107;-49
2021/03/06 02:40:13;;;;;;;3.60;3.30;;;;;;;5.29;55.68;93540.41;5090496;28;20063;-46
2021/03/06 02:42:39;;;;;;;6.88;2.60;;;;;;;4.95;56.18;93530.25;5090670;28;20031;-46
2021/03/06 02:45:06;;;;;;;1.60;1.50;;;;;;;5.00;56.91;93549.38;5090341;28;20055;-48
2021/03/06 02:47:32;;;;;;;3.00;1.98;;;;;;;4.79;57.84;93551.03;5091487;28;20519;-50
2021/03/06 02:49:59;;;;;;;3.80;1.65;;;;;;;4.86;57.12;93544.25;5091333;28;20024;-50
2021/03/06 02:52:24;;;;;;;5.75;2.05;;;;;;;4.83;56.93;93556.25;5091430;28;20031;-49
2021/03/06 02:54:50;;;;;;;3.30;2.33;;;;;;;4.28;58.76;93552.63;5091558;28;20032;-51
2021/03/06 02:57:53;;;;;;;2.22;1.70;;;;;;;4.34;59.25;93560.78;5091264;28;20467;-47
2021/03/06 03:00:43;;;;;;;0.80;0.80;;;;;;;4.39;58.86;93560.75;5091546;28;20024;-47
2021/03/06 03:03:11;;;;;;;1.90;1.80;;;;;;;4.45;58.00;93557.97;5090966;28;20123;-49
2021/03/06 03:05:58;;;;;;;2.93;2.07;;;;;;;4.47;57.95;93558.97;5091233;28;20131;-48
2021/03/06 03:08:34;;;;;;;2.83;1.15;;;;;;;4.39;58.78;93563.50;5091050;28;20035;-50
2021/03/06 03:11:02;;;;;;;4.07;2.67;;;;;;;4.46;58.75;93570.41;5076495;28;20066;-49
2021/03/06 03:13:37;;;;;;;2.78;1.85;;;;;;;4.46;57.68;93575.88;5069782;28;20029;-47
2021/03/06 03:16:11;;;;;;;2.05;1.95;;;;;;;4.41;58.83;93562.97;5070755;28;20040;-45
2021/03/06 03:19:03;;;;;;;1.65;1.02;;;;;;;4.37;58.83;93576.19;5070871;28;20032;-50
2021/03/06 03:21:30;;;;;;;2.38;2.17;;;;;;;4.24;58.97;93579.47;5069495;28;20051;-47
2021/03/06 03:24:03;;;;;;;2.72;1.67;;;;;;;4.32;59.02;93577.69;5069578;28;20408;-51
2021/03/06 03:26:29;;;;;;;7.68;3.15;;;;;;;4.38;58.54;93583.88;5069424;28;20017;-51
2021/03/06 03:28:55;;;;;;;10.98;3.30;;;;;;;4.43;58.25;93583.09;5069437;28;20048;-50
2021/03/06 03:31:23;;;;;;;2.55;2.13;;;;;;;4.25;58.44;93583.69;5069338;28;20493;-49
2021/03/06 03:33:49;;;;;;;3.50;2.55;;;;;;;4.28;58.52;93585.41;5083373;28;20500;-48
2021/03/06 03:36:15;;;;;;;2.65;2.47;;;;;;;4.34;58.67;93582.63;5088765;28;20031;-50
2021/03/06 03:38:44;;;;;;;2.85;2.65;;;;;;;4.42;58.77;93578.13;5089350;28;20052;-49
2021/03/06 03:41:10;;;;;;;3.55;3.20;;;;;;;4.28;57.99;93579.19;5089552;28;20020;-50
2021/03/06 03:43:36;;;;;;;7.40;2.50;;;;;;;3.82;60.16;93588.84;5090669;28;20073;-50
2021/03/06 03:46:03;;;;;;;8.55;4.18;;;;;;;3.94;60.08;93586.06;5090470;28;20101;-48
2021/03/06 03:48:29;;;;;;;2.20;1.55;;;;;;;3.96;59.83;93594.50;5089562;28;20035;-45
2021/03/06 03:50:54;;;;;;;1.73;1.25;;;;;;;3.77;60.66;93586.09;5090591;28;20428;-46
2021/03/06 03:53:20;;;;;;;3.83;2.58;;;;;;;3.91;60.90;93596.00;5089191;28;20028;-45
2021/03/06 03:55:45;;;;;;;4.18;1.98;;;;;;;3.93;61.25;93604.44;5089348;28;20033;-46
2021/03/06 03:58:11;;;;;;;2.20;2.10;;;;;;;3.93;60.95;93579.84;5089276;28;20028;-46
2021/03/06 04:00:37;;;;;;;7.57;1.90;;;;;;;4.06;60.63;93604.63;5090545;28;20024;-47
2021/03/06 04:03:07;;;;;;;3.25;2.65;;;;;;;4.14;60.25;93602.84;5079593;28;20038;-46
2021/03/06 04:05:32;;;;;;;1.77;1.42;;;;;;;4.20;60.19;93616.50;5070141;28;20505;-45
2021/03/06 04:07:58;;;;;;;1.73;1.42;;;;;;;4.30;59.74;93618.44;5070251;28;20086;-48
2021/03/06 04:10:25;;;;;;;2.25;1.70;;;;;;;4.23;59.66;93601.81;5071735;28;20028;-47
2021/03/06 04:12:53;;;;;;;4.78;1.75;;;;;;;4.22;58.76;93617.47;5074518;28;20025;-46
2021/03/06 04:15:21;;;;;;;7.68;5.55;;;;;;;4.29;58.74;93624.41;5074316;28;20038;-46
2021/03/06 04:17:47;;;;;;;8.52;2.75;;;;;;;4.39;59.32;93631.06;5074229;28;20024;-46
2021/03/06 04:20:14;;;;;;;1.58;1.42;;;;;;;4.29;60.21;93635.34;5078045;28;20031;-47
2021/03/06 04:22:40;;;;;;;2.80;2.55;;;;;;;4.28;60.68;93629.13;5094322;28;20545;-47
2021/03/06 04:25:07;;;;;;;2.03;1.85;;;;;;;4.41;61.20;93637.53;5094597;28;20027;-48
2021/03/06 04:27:33;;;;;;;4.97;2.08;;;;;;;4.33;61.59;93633.09;5094266;28;20042;-48
2021/03/06 04:29:58;;;;;;;2.30;1.65;;;;;;;4.31;61.39;93633.59;5093993;28;20031;-46
2021/03/06 04:32:24;;;;;;;4.55;4.00;;;;;;;4.38;61.62;93640.50;5094220;28;20020;-47
2021/03/06 04:34:50;;;;;;;5.22;2.63;;;;;;;4.45;61.31;93640.00;5094086;28;20099;-47
2021/03/06 04:37:15;;;;;;;6.18;3.33;;;;;;;4.26;59.71;93648.03;5093902;28;20027;-50
2021/03/06 04:39:41;;;;;;;13.60;6.32;;;;;;;4.16;59.77;93644.06;5093359;28;20040;-45
2021/03/06 04:42:06;;;;;;;9.80;5.20;;;;;;;4.14;59.03;93649.31;5093471;28;20024;-48
2021/03/06 04:44:32;;;;;;;4.55;3.92;;;;;;;4.14;59.03;93641.09;5093560;28;20031;-47
2021/03/06 04:46:58;;;;;;;11.80;3.40;;;;;;;3.72;60.77;93644.22;5093798;28;20024;-45
2021/03/06 04:49:23;;;;;;;5.05;4.55;;;;;;;3.78;61.19;93650.41;5093557;28;20027;-45
2021/03/06 04:51:50;;;;;;;4.43;3.78;;;;;;;3.71;61.01;93651.66;5093251;28;20057;-48
2021/03/06 04:54:15;;;;;;;12.13;5.55;;;;;;;3.74;61.18;93647.94;5092017;28;20024;-47
2021/03/06 04:56:40;;;;;;;5.18;4.65;;;;;;;3.73;62.84;93649.19;5093294;28;20028;-48
2021/03/06 04:59:06;;;;;;;3.05;1.48;;;;;;;3.87;63.65;93655.59;5093143;28;20012;-46
2021/03/06 05:01:31;;;;;;;1.88;1.67;;;;;;;3.98;63.54;93658.31;5093107;28;20464;-47
2021/03/06 05:03:57;;;;;;;3.05;2.53;;;;;;;4.08;64.10;93662.25;5093226;28;20085;-47
2021/03/06 05:06:22;;;;;;;5.15;4.03;;;;;;;4.24;63.51;93671.63;5093406;28;20099;-46
2021/03/06 05:08:48;;;;;;;4.30;3.80;;;;;;;4.37;64.24;93674.56;5093046;28;20031;-47
2021/03/06 05:11:13;;;;;;;3.85;3.50;;;;;;;4.35;64.00;93671.59;5092895;28;20043;-46
2021/03/06 05:13:38;;;;;;;8.25;5.13;;;;;;;4.35;63.48;93677.06;5093606;28;20035;-48
2021/03/06 05:16:04;;;;;;;7.80;4.90;;;;;;;4.42;63.49;93679.25;5093337;28;20034;-47
2021/03/06 05:18:31;;;;;;;4.32;3.97;;;;;;;4.48;63.28;93688.19;5093448;28;20393;-48
2021/03/06 05:20:57;;;;;;;2.08;1.92;;;;;;;4.47;64.18;93695.66;5093216;28;20016;-48
2021/03/06 05:23:23;;;;;;;4.25;3.15;;;;;;;4.55;63.49;93702.06;5093243;28;20073;-46
2021/03/06 05:25:48;;;;;;;11.45;5.95;;;;;;;4.59;63.40;93696.34;5093391;28;20036;-47
2021/03/06 05:28:23;;;;;;;5.15;3.67;;;;;;;4.79;63.15;93696.00;5093140;28;20032;-49
2021/03/06 05:30:49;;;;;;;4.55;2.83;;;;;;;4.81;63.32;93698.25;5093137;28;20523;-46
2021/03/06 05:33:15;;;;;;;5.85;5.05;;;;;;;4.83;64.04;93703.94;5093211;28;20031;-48
2021/03/06 05:35:41;;;;;;;2.95;2.45;;;;;;;4.94;64.12;93709.34;5093117;28;20024;-46
2021/03/06 05:38:07;;;;;;;3.30;3.05;;;;;;;5.00;64.64;93710.06;5091848;28;20121;-50
2021/03/06 05:40:37;;;;;;;5.03;4.53;;;;;;;5.08;65.06;93719.97;5093197;28;20180;-46
2021/03/06 05:43:03;;;;;;;4.05;2.92;;;;;;;5.23;65.91;93725.09;5092999;28;20093;-47
2021/03/06 05:45:29;;;;;;;9.52;3.80;;;;;;;5.32;66.35;93716.59;5092734;28;20497;-49
2021/03/06 05:47:56;;;;;;;8.60;3.70;;;;;;;5.34;66.13;93712.09;5091526;28;20110;-48
2021/03/06 05:50:24;;;;;;;8.52;5.13;;;;;;;5.67;66.36;93732.25;5092683;28;20079;-46
2021/03/06 05:52:50;;;;;;;3.72;2.38;;;;;;;5.80;65.35;93733.16;5092710;28;20476;-51
2021/03/06 05:55:17;;;;;;;4.70;3.42;;;;;;;5.81;65.31;93718.19;5092576;28;20020;-48
2021/03/06 05:57:43;;;;;;;5.55;2.97;;;;;;;6.00;65.12;93730.00;5092522;28;20024;-48
2021/03/06 06:00:09;;;;;;;3.70;3.42;;;;;;;6.12;64.38;93749.84;5092517;28;20094;-47
2021/03/06 06:02:34;;;;;;;5.03;3.13;;;;;;;6.21;64.09;93740.53;5092332;28;20143;-45
2021/03/06 06:05:00;;;;;;;8.60;4.13;;;;;;;6.31;64.49;93755.38;5085234;28;20108;-48
2021/03/06 06:07:26;;;;;;;6.35;3.55;;;;;;;6.27;64.12;93736.47;5091054;28;20026;-44
2021/03/06 06:09:51;;;;;;;4.10;2.72;;;;;;;6.44;63.80;93756.25;5091251;28;20102;-46
2021/03/06 06:12:17;;;;;;;4.88;2.67;;;;;;;6.51;63.40;93765.91;5092055;28;20515;-46
2021/03/06 06:14:43;;;;;;;2.88;2.67;;;;;;;6.61;63.56;93765.03;5082415;28;20384;-45
2021/03/06 06:17:10;;;;;;;3.65;3.05;;;;;;;6.63;63.60;93773.50;5090910;28;20040;-48
2021/03/06 06:19:37;;;;;;;7.13;5.35;;;;;;;6.76;63.26;93773.59;5091827;28;20511;-45
2021/03/06 06:22:16;;;;;;;4.68;3.45;;;;;;;6.79;63.34;93769.09;5092014;28;20024;-46
2021/03/06 06:24:46;;;;;;;5.90;3.22;;;;;;;6.69;63.94;93776.91;5090643;28;20035;-46
2021/03/06 06:27:12;;;;;;;5.18;4.40;;;;;;;6.85;63.33;93788.97;5089138;28;20480;-49
2021/03/06 06:29:46;;;;;;;10.35;4.80;;;;;;;6.96;62.76;93777.88;5091467;28;20016;-46
2021/03/06 06:32:13;;;;;;;6.90;4.00;;;;;;;7.17;62.13;93798.06;5089122;28;20048;-48
2021/03/06 06:34:40;;;;;;;6.72;4.85;;;;;;;7.19;62.39;93798.28;5091629;28;20063;-47
2021/03/06 06:37:15;;;;;;;9.73;3.72;;;;;;;7.18;62.10;93805.06;5088249;28;20031;-49
2021/03/06 06:39:43;;;;;;;4.80;3.58;;;;;;;7.14;62.50;93821.09;5071202;28;20048;-48
2021/03/06 06:42:09;;;;;;;4.90;3.28;;;;;;;7.12;62.74;93822.84;5071569;28;20052;-51
2021/03/06 06:44:35;;;;;;;6.72;4.38;;;;;;;6.80;62.96;93808.97;5071573;28;20474;-46
2021/03/06 06:47:18;;;;;;;7.68;4.50;;;;;;;7.06;62.92;93839.38;5070156;28;20028;-47
2021/03/06 06:49:44;;;;;;;3.60;3.25;;;;;;;7.03;63.12;93847.91;5071471;28;20497;-48
2021/03/06 06:52:09;;;;;;;4.85;4.05;;;;;;;6.86;63.69;93851.56;5071202;28;20044;-45
2021/03/06 06:54:34;;;;;;;5.25;4.45;;;;;;;6.87;64.04;93864.06;5071177;28;20028;-45
2021/03/06 06:57:07;;;;;;;4.78;3.65;;;;;;;6.61;65.22;93868.53;5071315;28;20020;-45
2021/03/06 06:59:33;;;;;;;5.80;4.50;;;;;;;6.61;65.00;93874.78;5071156;28;20473;-45
2021/03/06 07:02:04;;;;;;;7.80;4.47;;;;;;;6.72;64.35;93876.66;5086133;28;20030;-45
2021/03/06 07:04:42;;;;;;;9.40;5.45;;;;;;;6.67;64.59;93861.75;5091376;28;20036;-45
2021/03/06 07:07:09;;;;;;;7.37;4.80;;;;;;;6.43;65.24;93845.25;5091275;28;20389;-47
2021/03/06 07:09:34;;;;;;;5.95;4.68;;;;;;;6.59;65.30;93882.03;5090909;28;20286;-47
2021/03/06 07:12:15;;;;;;;10.68;5.00;;;;;;;6.47;65.82;93891.63;5080908;28;20496;-47
2021/03/06 07:14:40;;;;;;;6.30;3.90;;;;;;;6.53;65.83;93887.56;5089870;28;20035;-50
2021/03/06 07:17:06;;;;;;;2.55;2.28;;;;;;;6.53;64.97;93901.28;5090479;28;20063;-48
2021/03/06 07:19:32;;;;;;;3.80;1.55;;;;;;;6.38;65.21;93897.41;5085578;28;20053;-48
2021/03/06 07:21:59;;;;;;;1.88;1.73;;;;;;;6.43;64.46;93900.13;5086470;28;20055;-49
2021/03/06 07:24:28;;;;;;;2.83;2.53;;;;;;;6.52;63.77;93905.28;5091021;28;20088;-50
2021/03/06 07:26:55;;;;;;;2.13;1.92;;;;;;;6.48;63.00;93913.03;5091079;28;20020;-45
2021/03/06 07:29:22;;;;;;;10.10;2.28;;;;;;;6.26;62.85;93913.22;5090956;28;20507;-50
2021/03/06 07:31:51;;;;;;;1.23;1.20;;;;;;;6.38;61.99;93922.84;5090450;28;20503;-46
2021/03/06 07:34:19;;;;;;;1.25;1.25;;;;;;;6.34;61.37;93927.13;5090729;28;20043;-46
2021/03/06 07:36:46;;;;;;;1.33;1.10;;;;;;;6.42;60.69;93934.28;5090819;28;20512;-44
2021/03/06 07:39:13;;;;;;;2.30;1.05;;;;;;;6.35;60.42;93934.09;5090634;28;20077;-45
2021/03/06 07:41:41;;;;;;;1.38;1.27;;;;;;;6.37;60.63;93935.06;5090288;28;20024;-45
2021/03/06 07:44:07;;;;;;;2.70;2.03;;;;;;;6.35;60.47;93945.81;5090096;28;20039;-47
2021/03/06 07:46:37;;;;;;;1.83;1.73;;;;;;;6.10;60.13;93953.22;5089086;28;20088;-46
2021/03/06 07:49:10;;;;;;;3.40;1.38;;;;;;;6.17;60.12;93938.22;5089230;28;20027;-47
2021/03/06 07:51:37;;;;;;;2.88;2.67;;;;;;;6.09;61.77;93957.19;5089392;28;20107;-46
2021/03/06 07:54:02;;;;;;;7.57;3.38;;;;;;;6.00;63.78;93954.00;5079319;28;20027;-49
2021/03/06 07:56:29;;;;;;;9.15;4.05;;;;;;;5.99;63.33;93950.53;5080784;28;20024;-49
2021/03/06 07:58:55;;;;;;;2.60;2.40;;;;;;;6.12;63.06;93952.69;5068198;28;20072;-49
2021/03/06 08:01:25;;;;;;;6.50;2.03;;;;;;;6.16;61.92;93946.94;5068981;28;20025;-46
2021/03/06 08:03:50;;;;;;;2.33;2.17;;;;;;;6.29;61.96;93949.84;5076746;28;20122;-45
2021/03/06 08:06:27;;;;;;;1.65;1.55;;;;;;;6.51;59.44;93953.19;5089174;28;20622;-45
2021/03/06 08:08:53;;;;;;;6.45;1.55;;;;;;;6.53;58.68;93947.19;5086846;28;20024;-48
2021/03/06 08:11:35;;;;;;;2.15;1.95;;;;;;;6.54;58.58;93959.66;5089371;28;20844;-46
2021/03/06 08:14:05;;;;;;;2.33;1.30;;;;;;;6.40;57.96;93960.72;5089428;28;20065;-50
2021/03/06 08:16:31;;;;;;;2.55;2.20;;;;;;;6.43;58.33;93962.47;5088790;28;20074;-49
2021/03/06 08:19:10;;;;;;;0.77;0.68;;;;;;;6.60;57.41;93952.88;5070328;28;20040;-49
2021/03/06 08:21:41;;;;;;;1.00;0.82;;;;;;;6.58;58.75;93958.09;5083276;28;20031;-48
2021/03/06 08:24:16;;;;;;;2.40;1.70;;;;;;;6.38;58.66;93960.50;5070166;28;20428;-46
2021/03/06 08:27:02;;;;;;;1.05;1.05;;;;;;;6.58;58.02;93973.84;5070095;28;20032;-46
2021/03/06 08:29:28;;;;;;;0.50;0.50;;;;;;;6.51;57.47;93969.63;5070190;28;20040;-46
2021/03/06 08:32:24;;;;;;;0.93;0.93;;;;;;;6.27;56.45;93972.28;5068799;28;20421;-47
2021/03/06 08:34:49;;;;;;;0.38;0.32;;;;;;;6.30;56.31;93976.78;5070106;28;20492;-49
2021/03/06 08:37:21;;;;;;;0.50;0.50;;;;;;;6.21;55.93;93979.06;5070048;28;20024;-50
2021/03/06 08:39:57;;;;;;;0.73;0.73;;;;;;;5.81;57.06;93970.25;5070060;28;20604;-45
2021/03/06 08:42:31;;;;;;;0.68;0.68;;;;;;;5.81;57.27;93983.22;5070001;28;20070;-51
2021/03/06 08:44:59;;;;;;;0.70;0.60;;;;;;;5.61;57.61;93989.75;5086659;28;20048;-48
2021/03/06 08:47:27;;;;;;;1.02;1.02;;;;;;;5.48;58.11;93991.56;5089549;28;20459;-46
2021/03/06 08:49:54;;;;;;;0.70;0.70;;;;;;;5.52;58.27;93992.06;5089519;28;20036;-46
2021/03/06 08:52:21;;;;;;;1.08;0.85;;;;;;;5.47;57.99;93998.28;5089683;28;20166;-45
2021/03/06 08:54:46;;;;;;;1.58;1.48;;;;;;;5.50;58.20;94000.75;5089250;28;20028;-46
2021/03/06 08:57:26;;;;;;;0.57;0.57;;;;;;;5.57;59.37;94000.25;5092139;28;20032;-46
2021/03/06 08:59:53;;;;;;;2.05;0.80;;;;;;;5.57;58.23;94007.69;5092942;28;20028;-48
2021/03/06 09:02:34;;;;;;;0.28;0.28;;;;;;;5.53;58.61;93993.53;5093060;28;20008;-48
2021/03/06 09:05:14;;;;;;;1.58;0.90;;;;;;;4.89;59.34;93984.47;5093412;28;20110;-50
2021/03/06 09:07:42;;;;;;;1.35;0.63;;;;;;;4.70;60.36;94007.34;5090768;28;20030;-46
2021/03/06 09:10:22;;;;;;;0.90;0.55;;;;;;;4.76;60.11;94008.09;5093266;28;20630;-46
2021/03/06 09:13:00;;;;;;;0.40;0.40;;;;;;;4.80;60.61;94011.31;5092034;28;20531;-48
2021/03/06 09:15:37;;;;;;;0.75;0.75;;;;;;;4.82;59.63;94017.03;5089639;28;20020;-50
2021/03/06 09:18:04;;;;;;;0.77;0.77;;;;;;;4.51;60.62;93998.88;5090384;28;20020;-46
2021/03/06 09:20:35;;;;;;;0.25;0.25;;;;;;;4.48;61.15;94040.91;5091880;28;20020;-47
2021/03/06 09:23:00;;;;;;;0.35;0.35;;;;;;;4.58;61.08;94036.66;5092612;28;20028;-47
2021/03/06 09:25:31;;;;;;;0.52;0.52;;;;;;;4.75;61.04;94031.94;5092143;28;20020;-45
2021/03/06 09:27:58;;;;;;;0.40;0.40;;;;;;;4.70;59.69;94029.22;5091908;28;20032;-48
2021/03/06 09:30:41;;;;;;;1.08;0.82;;;;;;;4.47;59.50;93990.91;5092013;28;20062;-45
2021/03/06 09:33:27;;;;;;;0.43;0.43;;;;;;;4.93;58.26;94047.13;5092160;28;20035;-49
2021/03/06 09:36:01;;;;;;;0.82;0.82;;;;;;;4.85;58.26;94048.88;5091901;28;20489;-48
2021/03/06 09:38:27;;;;;;;1.10;1.10;;;;;;;4.66;58.05;94056.09;5091358;28;20762;-45
2021/03/06 09:40:52;;;;;;;0.60;0.60;;;;;;;4.68;57.63;94059.06;5091721;28;20164;-52
2021/03/06 09:43:30;;;;;;;0.50;0.50;;;;;;;4.60;57.87;94048.59;5093096;28;20053;-50
2021/03/06 09:45:57;;;;;;;0.73;0.73;;;;;;;4.87;58.21;94057.34;5092918;28;20508;-47
2021/03/06 09:48:23;;;;;;;0.50;0.47;;;;;;;5.15;58.04;94058.84;5092484;28;20027;-49
2021/03/06 09:50:52;;;;;;;1.05;1.05;;;;;;;5.24;55.99;94061.28;5092195;28;20535;-48
2021/03/06 09:53:19;;;;;;;;;;;;;;;5.26;55.52;94067.00;5092641;28;20020;-50
2021/03/06 09:55:45;;;;;;;0.77;0.77;;;;;;;5.38;54.95;94059.53;5092180;28;20407;-47
2021/03/06 09:58:17;;;;;;;0.47;0.47;;;;;;;5.60;55.65;94059.50;5092345;28;20103;-49
2021/03/06 10:00:43;;;;;;;0.70;0.68;;;;;;;5.82;55.43;94058.69;5092377;28;20043;-48
2021/03/06 10:03:08;;;;;;;0.50;0.50;;;;;;;6.15;54.88;94055.84;5091943;28;20512;-49
2021/03/06 10:05:34;;;;;;;0.63;0.63;;;;;;;6.25;52.69;94059.03;5092254;28;20020;-50
2021/03/06 10:08:00;;;;;;;0.38;0.38;;;;;;;6.37;52.18;94063.22;5091425;28;20062;-47
2021/03/06 10:10:26;;;;;;;1.42;1.25;;;;;;;6.11;52.27;94060.84;5091120;28;20522;-46
2021/03/06 10:12:52;;;;;;;0.95;0.95;;;;;;;6.03;52.62;94049.69;5092347;28;20396;-47
2021/03/06 10:15:18;;;;;;;0.45;0.45;;;;;;;5.93;52.74;94042.97;5092350;28;20028;-48
2021/03/06 10:17:44;;;;;;;0.63;0.60;;;;;;;6.15;52.67;94072.28;5091216;28;20512;-49
2021/03/06 10:20:10;;;;;;;1.20;0.98;;;;;;;6.17;54.68;94060.84;5092194;28;20111;-48
2021/03/06 10:22:48;;;;;;;0.45;0.45;;;;;;;6.18;55.55;94078.75;5092156;28;20108;-48
2021/03/06 10:25:22;;;;;;;0.50;0.50;;;;;;;6.17;53.68;94078.03;5091835;28;20020;-47
2021/03/06 10:27:48;;;;;;;0.28;0.28;;;;;;;5.98;54.39;94044.94;5072097;28;20114;-48
2021/03/06 10:30:18;;;;;;;0.20;0.20;;;;;;;6.22;53.13;94073.75;5071734;28;20059;-46
2021/03/06 10:33:00;;;;;;;1.10;0.40;;;;;;;6.32;54.58;94074.97;5070584;28;20032;-50
2021/03/06 10:35:46;;;;;;;0.20;0.20;;;;;;;6.57;53.41;94084.81;5072910;28;20032;-52
2021/03/06 10:38:24;;;;;;;0.63;0.63;;;;;;;6.57;53.73;94082.81;5082376;28;20140;-50
2021/03/06 10:40:56;;;;;;;0.98;0.43;;;;;;;6.50;53.04;94093.56;5091191;28;20100;-49
2021/03/06 10:43:52;;;;;;;0.70;0.43;;;;;;;6.62;52.36;94081.28;5090281;28;20496;-47
2021/03/06 10:46:24;;;;;;;5.03;0.77;;;;;;;6.86;51.84;94081.41;5077669;28;20504;-49
2021/03/06 10:48:56;;;;;;;0.52;0.50;;;;;;;7.23;50.11;94089.88;5090987;28;20448;-48
2021/03/06 10:51:49;;;;;;;0.70;0.70;;;;;;;7.33;49.60;94082.03;5090057;28;20690;-49
2021/03/06 10:54:15;;;;;;;1.10;0.90;;;;;;;7.57;49.29;94084.81;5090358;28;20453;-48
2021/03/06 10:56:41;;;;;;;2.17;0.63;;;;;;;7.60;48.05;94072.81;5091161;28;20062;-50
2021/03/06 10:59:07;;;;;;;0.40;0.40;;;;;;;7.42;47.91;94071.47;5089919;28;20442;-47
2021/03/06 11:01:53;;;;;;;1.20;1.05;;;;;;;7.34;48.17;94076.00;5090412;28;20032;-50
2021/03/06 11:04:28;;;;;;;0.70;0.68;;;;;;;7.21;48.30;94086.88;5090881;28;20040;-47
2021/03/06 11:06:58;;;;;;;1.02;1.02;;;;;;;7.01;49.04;94053.59;5091208;28;20536;-48
2021/03/06 11:09:29;;;;;;;0.35;0.35;;;;;;;7.05;50.16;94084.25;5091393;28;20024;-47
2021/03/06 11:11:55;;;;;;;1.13;0.90;;;;;;;7.26;50.55;94088.06;5091048;28;20030;-51
2021/03/06 11:14:28;;;;;;;2.72;1.30;;;;;;;7.36;49.74;94089.25;5090984;28;20028;-48
2021/03/06 11:16:54;;;;;;;1.20;1.15;;;;;;;7.17;49.67;94091.16;5088391;28;20024;-48
2021/03/06 11:19:20;;;;;;;0.38;0.38;;;;;;;7.07;51.39;94093.47;5090541;28;20051;-48
2021/03/06 11:21:46;;;;;;;1.48;1.10;;;;;;;7.07;50.31;94098.22;5081661;28;20024;-50
2021/03/06 11:24:11;;;;;;;0.50;0.50;;;;;;;6.87;49.66;94093.84;5070702;28;20043;-50
2021/03/06 11:26:37;;;;;;;1.25;1.15;;;;;;;6.68;51.05;94084.75;5070923;28;20028;-49
2021/03/06 11:29:06;;;;;;;0.40;0.40;;;;;;;6.87;51.27;94085.63;5070607;28;20028;-52
2021/03/06 11:31:32;;;;;;;1.20;0.77;;;;;;;7.09;50.15;94082.72;5085165;28;20028;-50
2021/03/06 11:33:59;;;;;;;0.57;0.57;;;;;;;6.94;48.79;94089.81;5090613;28;20078;-48
2021/03/06 11:36:25;;;;;;;0.30;0.30;;;;;;;7.01;48.68;94089.28;5086952;28;20080;-47
2021/03/06 11:38:50;;;;;;;0.98;0.68;;;;;;;6.96;48.70;94068.84;5086301;28;20102;-50
2021/03/06 11:41:16;;;;;;;1.48;0.73;;;;;;;7.35;48.92;94088.50;5079337;28;20566;-47
2021/03/06 11:43:41;;;;;;;0.43;0.43;;;;;;;7.29;47.81;94084.31;5072357;28;20057;-48
2021/03/06 11:46:07;;;;;;;1.02;0.52;;;;;;;7.47;47.05;94086.41;5077905;28;20081;-49
2021/03/06 11:48:33;;;;;;;2.83;0.68;;;;;;;7.60;46.17;94089.28;5079309;28;20047;-48
2021/03/06 11:50:58;;;;;;;0.40;0.40;;;;;;;7.63;45.41;94082.75;5068397;28;20256;-49